Overview Statistics Trail Chart Weather Telemetry Raw packets
 

This is the latest recevied weather packets stored in our database for station/object 9A7DI-13. If no packets are shown the sender has not sent any weather packets the latest 10 day(s).

<< 44 45 46 47 48 49 50 >>
Time Temp. Humidity Pressure Rain* Wind** Luminosity Snow
1787984813 26.11° C 56% 1024.5 hPa - - - -
1787984213 25.56° C 61% 1024.2 hPa - - - -
1787983613 25° C 61% 1024.6 hPa - - - -
1787983013 25° C 62% 1024.6 hPa - - - -
1787982413 24.44° C 66% 1024.7 hPa - - - -
1787981813 23.33° C 71% 1024.6 hPa - - - -
1787981213 22.78° C 74% 1024.6 hPa - - - -
1787980613 21.67° C 79% 1024.4 hPa - - - -
1787980013 21.67° C 79% 1023.9 hPa - - - -
1787979413 21.11° C 80% 1024 hPa - - - -
1787978813 21.11° C 81% 1024 hPa - - - -
1787978213 21.11° C 82% 1023.7 hPa - - - -
1787977613 21.11° C 82% 1023.3 hPa - - - -
1787977013 20.56° C 83% 1023 hPa - - - -
1787976413 21.11° C 83% 1022.6 hPa - - - -
1787975813 20.56° C 85% 1022 hPa - - - -
1787975213 20.56° C 86% 1021.4 hPa - - - -
1787974613 20.56° C 84% 1021 hPa - - - -
1787974013 21.11° C 83% 1020.2 hPa - - - -
1787973413 21.11° C 82% 1020.9 hPa - - - -
1787972813 21.11° C 81% 1020.4 hPa - - - -
1787972213 20.56° C 82% 1020.3 hPa - - - -
1787971613 20.56° C 81% 1020.3 hPa - - - -
1787971013 21.11° C 79% 1020.3 hPa - - - -
1787970413 21.11° C 79% 1020.1 hPa - - - -

* Rain since midnight (hover to see other rain measurements)
** Current wind speed in m/s (hover to see current wind gust speed)